• Join FlightAware (Why Join?)
  • Login
  • US Flag 
03:06AM EDT


 

Airport Tracker/Info


-or-


 

Live Flight TrackerFlight Track Log ✈ SKW4772 ✈ 02-May-2013 ✈ KSLC - KOMA

Flight Track Log - Related Links

Times and Time Zones

All times are in EDT time to prevent confusion due to time zone crossing. See the SKW4772 flight status page for this flight to view local times or setup timezone preferences in your user account.

Time Position Orientation Groundspeed Altitude Reporting Facility
EDT Latitude Longitude Course Direction KTS MPH feet Rate Location/Type
10:31PM 40.8056 -111.9628 90° East 169 194 5,000  Level Salt Lake Center
10:32PM 40.8717 -111.9714 354° North 210 242 6,900 1,680 Climbing Salt Lake Center
10:33PM 40.9128 -111.9772 354° North 241 277 8,100 2,280 Climbing Salt Lake Center
10:33PM 40.9453 -111.9833 352° North 265 305 9,200 2,580 Climbing Salt Lake Center
10:34PM 41.1155 -111.7649 131° Southeast  Level FlightAware Approximate
10:34PM 40.9864 -111.9625 21° North 278 320 10,800  Level Salt Lake Center
10:35PM 41.0327 -111.6407 131° Southeast  Level FlightAware Approximate
10:35PM 41.0067 -111.8661 74° East 290 334 12,900  Level Salt Lake Center
10:36PM 41.0333 -111.4855 90° East  Level FlightAware Approximate
10:36PM 41.0156 -111.7561 84° East 322 371 14,400  Level Salt Lake Center
10:37PM 41.0225 -111.5981 87° East 360 414 16,700 1,740 Climbing Salt Lake Center
10:38PM 41.0292 -111.4589 86° East 379 436 18,000 1,500 Climbing Salt Lake Center
10:39PM 41.0353 -111.3150 87° East 391 450 19,900 1,680 Climbing Salt Lake Center
10:40PM 41.0406 -111.1681 87° East 400 460 21,500 1,500 Climbing Salt Lake Center
10:41PM 41.0469 -111.0147 87° East 415 478 23,000 1,440 Climbing Salt Lake Center
10:42PM 41.0531 -110.8586 87° East 425 489 24,500 1,260 Climbing Salt Lake Center
10:43PM 41.0586 -110.6989 87° East 433 498 25,700 1,260 Climbing Salt Lake Center
10:44PM 41.0664 -110.5158 87° East 446 513 27,200 1,260 Climbing Salt Lake Center
10:45PM 41.0728 -110.3308 87° East 450 518 28,400 1,260 Climbing Salt Lake Center
10:46PM 41.0778 -110.1708 88° East 454 522 29,800 1,260 Climbing Salt Lake Center
10:47PM 41.0828 -110.0131 88° East 451 519 31,000 1,260 Climbing Salt Lake Center
10:48PM 41.0889 -109.8294 87° East 450 518 32,400 1,080 Climbing Salt Lake Center
10:49PM 41.0931 -109.6722 88° East 448 516 33,300 1,260 Climbing Salt Lake Center
10:50PM 41.0983 -109.4897 88° East 447 514 35,000 1,560 Climbing Salt Lake Center
10:51PM 41.1019 -109.3419 88° East 429 494 36,500 960 Climbing Salt Lake Center
10:52PM 41.1064 -109.1700 88° East 422 486 37,000 240 Climbing Salt Lake Center
10:53PM 41.1106 -109.0192 88° East 430 495 37,000  Level Salt Lake Center
10:54PM 41.1150 -108.8353 88° East 449 517 37,000  Level Salt Lake Center
10:55PM 41.1186 -108.6725 88° East 462 532 37,000  Level Salt Lake Center
10:56PM 41.1222 -108.4811 89° East 467 537 37,000  Level Salt Lake Center
10:57PM 41.1253 -108.3158 89° East 469 540 37,000  Level Salt Lake Center
10:58PM 41.1286 -108.1514 88° East 469 540 37,000  Level Salt Lake Center
10:59PM 41.1317 -107.9561 89° East 475 547 37,000  Level Salt Lake Center
11:00PM 41.1336 -107.7917 89° East 470 541 37,000  Level Salt Lake Center
11:01PM 41.1353 -107.5994 89° East 468 539 37,000  Level Salt Lake Center
11:02PM 41.1372 -107.4411 89° East 455 524 37,000  Level Salt Lake Center
11:03PM 41.1386 -107.2878 89° East 439 505 37,000  Level Salt Lake Center
11:04PM 41.1406 -107.1083 89° East 436 502 37,000  Level Salt Lake Center
11:05PM 41.1417 -106.9542 89° East 438 504 37,000  Level Salt Lake Center
11:07PM 41.1425 -106.7464 90° East 441 507 37,000  Level Denver Center
11:08PM 41.1433 -106.5889 90° East 445 512 37,000  Level Denver Center
11:09PM 41.1439 -106.4342 90° East 440 506 37,000  Level Denver Center
11:10PM 41.1425 -106.2269 90° East 441 507 37,000  Level Denver Center
11:11PM 41.1436 -106.0703 89° East 441 507 37,000  Level Denver Center
11:12PM 41.1433 -105.8883 90° East 440 506 37,000  Level Denver Center
11:13PM 41.1422 -105.7336 90° East 441 507 37,000  Level Denver Center
11:14PM 41.1417 -105.5506 90° East 444 511 37,000  Level Denver Center
11:15PM 41.1403 -105.3947 91° East 443 510 37,000  Level Denver Center
11:16PM 41.1400 -105.2394 90° East 442 509 37,000  Level Denver Center
11:17PM 41.1378 -105.0592 91° East 440 506 37,000  Level Denver Center
11:18PM 41.1358 -104.9028 91° East 440 506 37,000  Level Denver Center
11:19PM 41.1331 -104.7203 91° East 443 510 37,000  Level Denver Center
11:20PM 41.1311 -104.5661 91° East 439 505 37,000  Level Denver Center
11:21PM 41.1292 -104.4142 91° East 434 499 37,000  Level Denver Center
11:22PM 41.1256 -104.2394 92° East 428 493 37,000  Level Denver Center
11:23PM 41.1231 -104.0844 91° East 433 498 37,000  Level Denver Center
11:24PM 41.1197 -103.9067 91° East 433 498 37,000  Level Denver Center
11:25PM 41.1158 -103.7544 92° East 433 498 37,000  Level Denver Center
11:26PM 41.1131 -103.6008 91° East 436 502 37,000  Level Denver Center
11:27PM 41.1086 -103.4242 92° East 432 497 37,000  Level Denver Center
11:28PM 41.1047 -103.2717 92° East 433 498 37,000  Level Denver Center
11:30PM 41.0994 -103.0692 92° East 431 496 37,000  Level Denver Center
11:31PM 41.1014 -102.9150 89° East 430 495 37,000  Level Denver Center
11:32PM 41.1158 -102.7425 84° East 422 486 37,000  Level Denver Center
11:33PM 41.1275 -102.5936 84° East 424 488 37,000  Level Denver Center
11:34PM 41.1397 -102.4436 84° East 428 493 37,000  Level Denver Center
11:35PM 41.1522 -102.2683 85° East 429 494 37,000  Level Denver Center
11:36PM 41.1639 -102.1172 84° East 431 496 37,000  Level Denver Center
11:37PM 41.1772 -101.9392 84° East 433 498 37,000  Level Denver Center
11:38PM 41.1867 -101.7875 85° East 433 498 37,000  Level Denver Center
11:39PM 41.1981 -101.6353 84° East 433 498 37,000  Level Denver Center
11:40PM 41.2103 -101.4581 85° East 432 497 37,000  Level Denver Center
11:41PM 41.2206 -101.3042 85° East 435 501 37,000  Level Denver Center
11:42PM 41.2322 -101.1253 85° East 435 501 37,000  Level Denver Center
11:43PM 41.2411 -100.9711 86° East 435 501 37,000  Level Denver Center
11:44PM 41.2508 -100.8161 85° East 436 502 37,000  Level Denver Center
11:45PM 41.2625 -100.6344 85° East 438 504 37,000  Level Denver Center
11:46PM 41.2714 -100.4778 86° East 440 506 37,000  Level Denver Center
11:47PM 41.2808 -100.3219 85° East 440 506 37,000  Level Denver Center
11:48PM 41.2900 -100.1392 86° East 442 509 37,000  Level Denver Center
11:49PM 41.2992 -99.9814 86° East 445 512 37,000  Level Denver Center
11:50PM 41.3075 -99.8247 86° East 444 511 37,000  Level Denver Center
11:51PM 41.3169 -99.6397 86° East 447 514 37,000  Level Denver Center
11:52PM 41.3250 -99.4833 86° East 444 511 37,000 -360 Level Denver Center
11:53PM 41.3339 -99.3008 86° East 444 511 36,300 -720 Descending Denver Center
11:54PM 41.3417 -99.1394 86° East 438 504 35,600 -600 Descending Denver Center
11:55PM 41.3481 -98.9775 87° East 434 499 35,100 -300 Descending Denver Center
11:56PM 41.3550 -98.8175 87° East 435 501 35,000 -60 Descending Minneapolis Center
11:57PM 41.3619 -98.6572 87° East 435 501 35,000 -540 Level Minneapolis Center
11:58PM 41.3697 -98.4964 86° East 435 501 34,000 -1,260 Descending Minneapolis Center
11:59PM 41.3756 -98.3247 87° East 439 505 32,400 -1,560 Descending Minneapolis Center
12:00AM 41.3750 -98.1639 90° East 434 499 30,900 -1,620 Descending Minneapolis Center
12:01AM 41.3747 -98.0164 90° East 427 491 29,200 -1,680 Descending Minneapolis Center
12:02AM 41.3733 -97.8708 91° East 402 463 27,600 -1,620 Descending Minneapolis Center
12:03AM 41.3725 -97.7383 90° East 369 425 26,000 -1,680 Descending Minneapolis Center
12:04AM 41.3725 -97.6064 90° East 358 412 24,300 -1,680 Descending Minneapolis Center
12:05AM 41.3714 -97.4747 91° East 356 410 22,700 -1,440 Descending Minneapolis Center
12:06AM 41.3708 -97.3697 90° East 355 409 21,400 -1,620 Descending Minneapolis Center
12:07AM 41.3689 -97.2175 91° East 346 398 19,500 -2,040 Descending Minneapolis Center
12:08AM 41.3517 -97.1342 105° East 338 389 18,300 -1,500 Descending Minneapolis Center
12:08AM 41.3669 -97.0689 73° East 337 388 18,000 -1,020 Descending Minneapolis Center
12:09AM 41.3525 -97.0369 121° Southeast 327 376 17,500 -1,620 Descending Minneapolis Center
12:09AM 41.3661 -96.9514 78° East 324 373 16,400 -1,620 Descending Minneapolis Center
12:10AM 41.3517 -96.9150 118° Southeast 317 365 15,900 -1,620 Descending Minneapolis Center
12:10AM 41.3619 -96.8356 80° East 315 362 14,800 -1,620 Descending Minneapolis Center
12:11AM 41.3431 -96.8019 127° Southeast 310 357 14,300 -1,620 Descending Minneapolis Center
12:11AM 41.3444 -96.7250 89° East 308 354 13,200 -1,740 Descending Minneapolis Center
12:12AM 41.3261 -96.6900 125° Southeast 304 350 12,600 -1,620 Descending Minneapolis Center
12:12AM 41.3242 -96.6172 92° East 303 349 11,600 -1,500 Descending Minneapolis Center
12:13AM 41.3094 -96.5836 120° Southeast 293 337 11,100 -1,620 Descending Minneapolis Center
12:13AM 41.3053 -96.5142 95° East 292 336 10,000 -1,620 Descending Minneapolis Center
12:14AM 41.2908 -96.4831 122° Southeast 287 330 9,500 -1,620 Descending Minneapolis Center
12:14AM 41.2869 -96.4119 94° East 287 330 8,400 -1,620 Descending Minneapolis Center
12:15AM 41.2739 -96.3794 118° Southeast 285 328 7,900 -1,380 Descending Minneapolis Center
12:15AM 41.2689 -96.3114 96° East 284 327 7,000 -1,500 Descending Minneapolis Center
12:16AM 41.2569 -96.2733 113° Southeast 279 321 6,400 -1,320 Descending Minneapolis Center
12:16AM 41.2522 -96.2139 96° East 278 320 5,700 -1,260 Descending Minneapolis Center
12:17AM 41.2403 -96.1781 114° Southeast 268 308 5,100 -1,140 Descending Minneapolis Center
12:17AM 41.2336 -96.1192 99° East 273 314 4,600 -780 Descending Minneapolis Center
12:18AM 41.2233 -96.0775 108° East 267 307 4,400 -540 Descending Minneapolis Center
12:18AM 41.2178 -96.0300 99° East 261 300 4,100 -600 Descending Minneapolis Center
12:19AM 41.2097 -95.9958 107° East 226 260 3,800 -600 Descending Minneapolis Center
12:19AM 41.2039 -95.9544 101° East 233 268 3,500 -600 Descending Minneapolis Center
12:20AM 41.1967 -95.9225 107° East 191 220 3,200 -540 Descending Minneapolis Center
12:20AM 41.1900 -95.8869 104° East 210 242 3,000 -480 Descending Minneapolis Center
12:21AM 41.2250 -95.8528 36° Northeast 155 178 2,400 -600 Descending Minneapolis Center
12:22AM 41.2572 -95.8556 356° North 130 150 1,900 -600 Descending Minneapolis Center
12:23AM 41.2839 -95.8772 329° Northwest 123 142 1,300 -420 Descending Minneapolis Center
12:24AM 41.3092 -95.9011 325° Northwest 122 140 1,100 -240 Descending Minneapolis Center